createdAt,value
2018-12-21T00:01:59.068Z,127.43
2018-12-21T00:04:27.499Z,83.77
2018-12-21T00:06:55.931Z,113.57
2018-12-21T00:09:24.412Z,101.47
2018-12-21T00:11:52.843Z,91.50
2018-12-21T00:14:21.288Z,82.17
2018-12-21T00:16:49.739Z,87.60
2018-12-21T00:19:18.181Z,82.97
2018-12-21T00:21:46.632Z,87.70
2018-12-21T00:24:15.307Z,104.23
2018-12-21T00:26:43.833Z,81.53
2018-12-21T00:29:12.310Z,82.33
2018-12-21T00:31:45.980Z,70.40
2018-12-21T00:34:19.899Z,91.63
2018-12-21T00:36:53.776Z,99.73
2018-12-21T00:39:27.428Z,97.47
2018-12-21T00:41:55.142Z,87.67
2018-12-21T00:44:33.687Z,87.03
2018-12-21T00:47:06.643Z,90.87
2018-12-21T00:49:35.079Z,79.67
2018-12-21T00:52:03.589Z,76.67
2018-12-21T00:54:32.007Z,75.80
2018-12-21T00:57:00.467Z,104.87
2018-12-21T00:59:28.884Z,95.03
2018-12-21T01:01:57.421Z,77.60
2018-12-21T01:04:25.992Z,69.37
2018-12-21T01:06:54.551Z,70.33
2018-12-21T01:09:23.139Z,91.10
2018-12-21T01:11:51.580Z,99.47
2018-12-21T01:14:20.039Z,88.07
2018-12-21T01:16:48.460Z,81.57
2018-12-21T01:19:16.897Z,83.60
2018-12-21T01:21:45.418Z,74.10
2018-12-21T01:24:13.867Z,87.70
2018-12-21T01:26:42.315Z,81.43
2018-12-21T01:29:10.775Z,79.57
2018-12-21T01:31:39.231Z,107.53
2018-12-21T01:34:07.728Z,91.63
2018-12-21T01:36:36.190Z,98.50
2018-12-21T01:39:06.672Z,102.73
2018-12-21T01:41:35.143Z,87.77
2018-12-21T01:44:03.608Z,101.73
2018-12-21T01:46:32.051Z,91.93
2018-12-21T01:49:00.468Z,72.83
2018-12-21T01:51:28.930Z,76.17
2018-12-21T01:53:57.343Z,103.33
2018-12-21T01:56:25.821Z,126.60
2018-12-21T01:58:54.239Z,127.93
2018-12-21T02:01:22.779Z,178.50
2018-12-21T02:03:51.224Z,162.63
2018-12-21T02:06:19.663Z,140.07
2018-12-21T02:08:48.155Z,79.67
2018-12-21T02:11:16.570Z,214.27
2018-12-21T02:13:44.999Z,121.50
2018-12-21T02:16:13.535Z,74.13
2018-12-21T02:18:41.940Z,69.90
2018-12-21T02:21:10.421Z,101.03
2018-12-21T02:23:38.945Z,108.30
2018-12-21T02:26:07.371Z,153.10
2018-12-21T02:28:35.868Z,198.40
2018-12-21T02:31:04.298Z,320.77
2018-12-21T02:34:36.205Z,152.83
2018-12-21T02:37:04.770Z,175.60
2018-12-21T02:39:33.229Z,76.87
2018-12-21T02:42:01.678Z,215.17
2018-12-21T02:44:31.168Z,231.40
2018-12-21T02:46:59.591Z,119.47
2018-12-21T02:49:28.029Z,124.10
2018-12-21T02:52:05.344Z,82.20
2018-12-21T02:54:26.992Z,99.23
2018-12-21T02:56:55.449Z,94.50
2018-12-21T02:59:23.866Z,114.23
2018-12-21T03:01:52.318Z,92.23
2018-12-21T03:04:20.803Z,227.57
2018-12-21T03:06:49.264Z,153.97
2018-12-21T03:09:17.815Z,150.03
2018-12-21T03:11:46.279Z,78.23
2018-12-21T03:14:14.759Z,110.40
2018-12-21T03:16:43.207Z,97.07
2018-12-21T03:19:11.855Z,151.20
2018-12-21T03:21:40.395Z,76.70
2018-12-21T03:24:08.864Z,89.43
2018-12-21T03:26:37.324Z,150.10
2018-12-21T03:29:05.747Z,95.53
2018-12-21T03:31:34.337Z,127.10
2018-12-21T03:34:02.758Z,75.77
2018-12-21T03:36:31.331Z,119.10
2018-12-21T03:38:59.873Z,169.40
2018-12-21T03:41:28.470Z,138.60
2018-12-21T03:43:56.954Z,149.40
2018-12-21T03:46:25.452Z,120.40
2018-12-21T03:48:53.919Z,180.53
2018-12-21T03:51:22.710Z,195.83
2018-12-21T03:53:51.291Z,82.73
2018-12-21T03:56:19.784Z,104.50
2018-12-21T03:58:48.242Z,92.53
2018-12-21T04:01:16.681Z,177.83
2018-12-21T04:03:45.125Z,75.33
2018-12-21T04:06:14.311Z,76.87
2018-12-21T04:08:42.720Z,73.27
2018-12-21T04:11:11.321Z,68.10
2018-12-21T04:13:39.798Z,48.53
2018-12-21T04:16:08.368Z,67.83
2018-12-21T04:18:36.832Z,46.33
2018-12-21T04:21:05.295Z,86.70
2018-12-21T04:23:34.747Z,71.13
2018-12-21T04:26:03.275Z,49.47
2018-12-21T04:28:31.752Z,62.50
2018-12-21T04:31:00.208Z,60.57
2018-12-21T04:33:28.660Z,51.60
2018-12-21T04:35:57.113Z,49.57
2018-12-21T04:38:25.523Z,44.67
2018-12-21T04:40:53.986Z,49.80
2018-12-21T04:43:22.437Z,42.63
2018-12-21T04:45:51.000Z,70.07
2018-12-21T04:48:19.632Z,54.00
2018-12-21T04:50:49.192Z,43.67
2018-12-21T04:53:17.618Z,44.87
2018-12-21T04:55:46.104Z,43.43
2018-12-21T04:58:14.524Z,45.30
2018-12-21T05:00:42.985Z,59.13
2018-12-21T05:03:11.472Z,51.30
2018-12-21T05:05:39.932Z,60.53
2018-12-21T05:08:09.511Z,52.87
2018-12-21T05:10:37.952Z,60.73
2018-12-21T05:13:06.455Z,60.37
2018-12-21T05:15:34.883Z,69.83
2018-12-21T05:18:04.226Z,66.87
2018-12-21T05:20:32.707Z,75.33
2018-12-21T05:23:01.192Z,74.27
2018-12-21T05:25:29.712Z,67.00
2018-12-21T05:27:58.153Z,66.27
2018-12-21T05:30:26.593Z,51.67
2018-12-21T05:32:55.048Z,50.53
2018-12-21T05:35:23.468Z,50.60
2018-12-21T05:37:51.950Z,47.53
2018-12-21T05:40:20.375Z,48.70
2018-12-21T05:42:49.736Z,48.87
2018-12-21T05:45:18.181Z,46.47
2018-12-21T05:47:46.702Z,48.13
2018-12-21T05:50:15.203Z,46.83
2018-12-21T05:52:44.743Z,48.33
2018-12-21T05:55:13.212Z,53.20
2018-12-21T05:57:41.626Z,58.57
2018-12-21T06:00:10.858Z,53.17
2018-12-21T06:02:39.315Z,54.50
2018-12-21T06:05:07.949Z,56.53
2018-12-21T06:07:36.378Z,51.33
2018-12-21T06:10:05.547Z,60.63
2018-12-21T06:12:33.987Z,52.00
2018-12-21T06:15:02.594Z,54.60
2018-12-21T06:17:31.027Z,53.73
2018-12-21T06:19:59.488Z,48.07
2018-12-21T06:22:27.911Z,54.83
2018-12-21T06:24:56.415Z,66.20
2018-12-21T06:27:24.863Z,56.00
2018-12-21T06:29:53.312Z,63.40
2018-12-21T06:32:21.727Z,61.23
2018-12-21T06:34:50.212Z,59.27
2018-12-21T06:37:18.653Z,68.07
2018-12-21T06:39:47.083Z,59.33
2018-12-21T06:42:15.645Z,57.93
2018-12-21T06:44:44.065Z,73.87
2018-12-21T06:47:12.523Z,62.07
2018-12-21T06:49:41.070Z,58.27
2018-12-21T06:52:09.551Z,62.13
2018-12-21T06:54:37.984Z,60.30
2018-12-21T06:57:06.580Z,58.23
2018-12-21T07:06:21.984Z,62.70
2018-12-21T07:08:50.415Z,66.10
2018-12-21T07:11:18.866Z,68.03
2018-12-21T07:13:47.319Z,64.03
2018-12-21T07:16:15.783Z,71.40
2018-12-21T07:18:44.229Z,71.37
2018-12-21T07:21:12.690Z,68.10
2018-12-21T07:23:41.115Z,66.10
2018-12-21T07:26:09.590Z,66.53
2018-12-21T07:28:38.159Z,63.77
2018-12-21T07:31:06.626Z,65.00
2018-12-21T07:33:35.089Z,68.40
2018-12-21T07:36:08.346Z,68.77
2018-12-21T07:38:33.979Z,69.63
2018-12-21T07:41:02.599Z,66.53
2018-12-21T07:43:31.027Z,66.37
2018-12-21T07:45:59.660Z,66.30
2018-12-21T07:48:28.099Z,61.70
2018-12-21T07:50:56.583Z,59.03
2018-12-21T07:53:25.005Z,55.23
2018-12-21T07:55:53.439Z,57.40
2018-12-21T07:58:22.023Z,64.60
2018-12-21T08:00:50.462Z,61.47
2018-12-21T08:03:18.919Z,63.43
2018-12-21T08:05:47.355Z,64.27
2018-12-21T08:08:15.819Z,60.00
2018-12-21T08:10:44.239Z,65.87
2018-12-21T08:13:12.646Z,61.60
2018-12-21T08:15:41.127Z,61.23
2018-12-21T08:18:09.559Z,64.87
2018-12-21T08:20:38.111Z,62.87
2018-12-21T08:23:06.619Z,70.27
2018-12-21T08:25:35.143Z,61.27
2018-12-21T08:28:03.731Z,66.50
2018-12-21T08:30:32.189Z,69.47
2018-12-21T08:33:00.627Z,64.63
2018-12-21T08:35:29.147Z,67.03
2018-12-21T08:37:57.616Z,67.57
2018-12-21T08:40:26.302Z,65.13
2018-12-21T08:42:54.778Z,67.37
2018-12-21T08:45:23.219Z,65.50
2018-12-21T08:47:51.695Z,67.43
2018-12-21T08:50:20.111Z,69.07
2018-12-21T08:52:48.539Z,69.93
2018-12-21T08:55:17.015Z,66.67
2018-12-21T08:57:45.463Z,65.10
2018-12-21T09:00:13.886Z,64.07
2018-12-21T09:02:42.463Z,65.90
2018-12-21T09:05:10.911Z,63.93
2018-12-21T09:07:39.374Z,61.30
2018-12-21T09:10:09.967Z,66.50
2018-12-21T09:12:38.804Z,70.47
2018-12-21T09:15:10.600Z,66.83
2018-12-21T09:17:39.092Z,68.53
2018-12-21T09:20:09.247Z,68.43
2018-12-21T09:22:37.659Z,64.30
2018-12-21T09:25:06.340Z,69.80
2018-12-21T09:27:34.755Z,66.90
2018-12-21T09:30:03.859Z,64.10
2018-12-21T09:32:32.275Z,73.10
2018-12-21T09:35:00.700Z,70.00
2018-12-21T09:37:29.152Z,68.37
2018-12-21T09:39:57.624Z,71.33
2018-12-21T09:42:26.171Z,72.60
2018-12-21T09:44:54.615Z,71.77
2018-12-21T09:47:23.067Z,70.33
2018-12-21T09:49:51.496Z,73.27
2018-12-21T09:52:20.185Z,82.03
2018-12-21T09:54:48.596Z,76.83
2018-12-21T09:57:17.146Z,79.63
2018-12-21T09:59:45.584Z,77.70
2018-12-21T10:02:15.115Z,81.57
2018-12-21T10:04:43.598Z,81.63
2018-12-21T10:07:12.042Z,78.80
2018-12-21T10:09:40.689Z,91.27
2018-12-21T10:12:09.110Z,92.27
2018-12-21T10:14:37.580Z,90.27
2018-12-21T10:17:06.160Z,85.00
2018-12-21T10:19:34.617Z,92.53
2018-12-21T10:22:03.106Z,99.30
2018-12-21T10:24:31.556Z,97.80
2018-12-21T10:27:00.023Z,107.03
2018-12-21T10:29:28.486Z,104.30
2018-12-21T10:31:56.960Z,108.70
2018-12-21T10:34:25.445Z,109.67
2018-12-21T10:36:53.988Z,109.63
2018-12-21T10:39:22.503Z,105.20
2018-12-21T10:41:51.044Z,124.60
2018-12-21T10:44:19.581Z,119.27
2018-12-21T10:46:48.014Z,123.33
2018-12-21T10:49:16.479Z,122.03
2018-12-21T10:51:44.912Z,121.33
2018-12-21T10:54:13.406Z,133.23
2018-12-21T10:56:41.819Z,139.77
2018-12-21T10:59:10.255Z,136.47
2018-12-21T11:01:38.722Z,118.60
2018-12-21T11:04:07.146Z,114.67
2018-12-21T11:06:35.555Z,131.23
2018-12-21T11:09:05.619Z,132.70
2018-12-21T11:11:34.047Z,137.37
2018-12-21T11:14:02.511Z,131.73
2018-12-21T11:16:30.931Z,174.40
2018-12-21T11:18:59.439Z,181.17
2018-12-21T11:21:27.964Z,153.10
2018-12-21T11:23:56.411Z,135.43
2018-12-21T11:26:24.857Z,139.60
2018-12-21T11:28:54.312Z,137.57
2018-12-21T11:31:22.721Z,132.87
2018-12-21T11:33:51.171Z,139.33
2018-12-21T11:36:19.585Z,133.83
2018-12-21T11:38:48.050Z,135.63
2018-12-21T11:41:16.491Z,128.13
2018-12-21T11:43:45.007Z,126.40
2018-12-21T11:46:13.424Z,136.13
2018-12-21T11:48:41.841Z,129.37
2018-12-21T11:51:10.287Z,139.63
2018-12-21T11:53:38.696Z,126.03
2018-12-21T11:56:07.152Z,142.00
2018-12-21T11:58:35.643Z,141.57
2018-12-21T12:01:04.195Z,142.63
2018-12-21T12:03:32.647Z,144.37
2018-12-21T12:06:01.103Z,150.73
2018-12-21T12:08:29.732Z,136.70
2018-12-21T12:10:58.143Z,133.17
2018-12-21T12:13:26.632Z,137.17
2018-12-21T12:15:55.143Z,128.03
2018-12-21T12:18:23.652Z,119.70
2018-12-21T12:20:52.199Z,125.33
2018-12-21T12:23:20.652Z,123.87
2018-12-21T12:25:49.116Z,135.40
2018-12-21T12:28:17.544Z,113.83
2018-12-21T12:30:46.047Z,116.07
2018-12-21T12:33:14.507Z,122.40
2018-12-21T12:35:42.964Z,122.33
2018-12-21T12:38:11.424Z,106.63
2018-12-21T12:40:39.864Z,106.83
2018-12-21T12:43:08.534Z,113.47
2018-12-21T12:45:37.551Z,108.37
2018-12-21T12:48:06.031Z,113.60
2018-12-21T12:50:34.484Z,111.77
2018-12-21T12:53:02.945Z,109.93
2018-12-21T12:55:31.375Z,109.73
2018-12-21T12:57:59.822Z,114.60
2018-12-21T13:00:28.238Z,108.27
2018-12-21T13:02:56.711Z,112.73
2018-12-21T13:05:25.427Z,108.47
2018-12-21T13:07:53.855Z,116.13
2018-12-21T13:10:22.336Z,112.20
2018-12-21T13:12:50.743Z,115.03
2018-12-21T13:15:19.246Z,109.73
2018-12-21T13:17:47.659Z,117.97
2018-12-21T13:20:16.151Z,106.07
2018-12-21T13:22:44.591Z,110.73
2018-12-21T13:25:13.153Z,106.97
2018-12-21T13:27:41.619Z,105.07
2018-12-21T13:30:12.026Z,107.87
2018-12-21T13:32:41.147Z,121.03
2018-12-21T13:35:09.588Z,114.50
2018-12-21T13:37:38.133Z,117.20
2018-12-21T13:40:12.661Z,108.73
2018-12-21T13:42:41.131Z,109.50
2018-12-21T13:45:10.923Z,117.23
2018-12-21T13:47:39.347Z,116.40
2018-12-21T13:50:11.579Z,111.60
2018-12-21T13:52:40.121Z,112.47
2018-12-21T13:55:09.287Z,114.87
2018-12-21T13:57:37.719Z,129.50
2018-12-21T14:00:08.284Z,124.57
2018-12-21T14:02:36.831Z,126.13
2018-12-21T14:05:06.420Z,124.03
2018-12-21T14:07:34.879Z,128.70
2018-12-21T14:10:04.119Z,119.43
2018-12-21T14:12:32.612Z,124.23
2018-12-21T14:15:01.016Z,113.60
2018-12-21T14:17:29.488Z,112.93
2018-12-21T14:19:57.923Z,116.80
2018-12-21T14:22:26.406Z,127.57
2018-12-21T14:24:54.862Z,115.53
2018-12-21T14:27:23.277Z,110.10
2018-12-21T14:29:51.688Z,120.17
2018-12-21T14:32:20.143Z,112.87
2018-12-21T14:34:48.651Z,119.00
2018-12-21T14:37:17.184Z,123.07
2018-12-21T14:39:45.646Z,122.07
2018-12-21T14:42:14.803Z,118.13
2018-12-21T14:44:43.242Z,115.63
2018-12-21T14:47:11.660Z,121.97
2018-12-21T14:49:40.137Z,121.43
2018-12-21T14:52:08.591Z,121.23
2018-12-21T14:54:37.027Z,125.87
2018-12-21T14:57:05.475Z,123.53
2018-12-21T14:59:33.968Z,115.43
2018-12-21T15:02:02.469Z,121.77
2018-12-21T15:04:30.879Z,113.57
2018-12-21T15:06:59.331Z,116.80
2018-12-21T15:09:27.763Z,120.57
2018-12-21T15:11:56.381Z,124.20
2018-12-21T15:14:24.839Z,104.57
2018-12-21T15:16:53.375Z,102.47
2018-12-21T15:19:21.811Z,114.07
2018-12-21T15:21:50.275Z,111.57
2018-12-21T15:24:18.961Z,115.27
2018-12-21T15:26:47.442Z,109.37
2018-12-21T15:29:15.904Z,105.60
2018-12-21T15:31:44.328Z,101.40
2018-12-21T15:34:12.812Z,104.20
2018-12-21T15:36:41.274Z,108.47
2018-12-21T15:39:09.694Z,121.00
2018-12-21T15:41:38.139Z,112.97
2018-12-21T15:44:06.741Z,100.07
2018-12-21T15:46:35.949Z,94.07
2018-12-21T15:49:04.544Z,104.63
2018-12-21T15:51:33.025Z,102.33
2018-12-21T15:54:01.505Z,104.37
2018-12-21T15:56:29.977Z,106.87
2018-12-21T15:58:58.442Z,104.27
2018-12-21T16:01:26.951Z,98.23
2018-12-21T16:03:55.391Z,113.77
2018-12-21T16:06:23.848Z,110.17
2018-12-21T16:08:52.311Z,111.93
2018-12-21T16:11:20.731Z,106.40
2018-12-21T16:13:49.188Z,116.57
2018-12-21T16:16:17.627Z,121.67
2018-12-21T16:18:46.155Z,108.20
2018-12-21T16:21:14.639Z,110.87
2018-12-21T16:23:43.071Z,116.27
2018-12-21T16:26:11.498Z,107.37
2018-12-21T16:28:42.046Z,114.73
2018-12-21T16:31:10.425Z,94.77
2018-12-21T16:33:38.882Z,93.30
2018-12-21T16:36:07.291Z,86.10
2018-12-21T16:38:35.719Z,100.33
2018-12-21T16:41:04.201Z,101.73
2018-12-21T16:43:32.658Z,101.83
2018-12-21T16:46:01.107Z,100.97
2018-12-21T16:48:29.556Z,89.27
2018-12-21T16:50:58.041Z,101.17
2018-12-21T16:53:26.450Z,99.03
2018-12-21T16:55:54.924Z,99.23
2018-12-21T16:58:23.351Z,101.43
2018-12-21T17:00:51.790Z,105.53
2018-12-21T17:03:20.291Z,98.57
2018-12-21T17:05:48.782Z,94.10
2018-12-21T17:08:17.221Z,102.73
2018-12-21T17:10:46.195Z,98.67
2018-12-21T17:13:14.675Z,100.10
2018-12-21T17:15:43.367Z,106.20
2018-12-21T17:18:11.835Z,100.30
2018-12-21T17:20:40.255Z,98.77
2018-12-21T17:23:08.729Z,97.90
2018-12-21T17:25:37.188Z,94.53
2018-12-21T17:28:05.644Z,97.73
2018-12-21T17:30:34.059Z,97.77
2018-12-21T17:33:02.521Z,98.23
2018-12-21T17:35:30.979Z,93.37
2018-12-21T17:37:59.395Z,99.67
2018-12-21T17:40:27.839Z,92.13
2018-12-21T17:42:56.267Z,102.93
2018-12-21T17:45:24.739Z,94.03
2018-12-21T17:47:53.287Z,118.67
2018-12-21T17:50:21.741Z,103.20
2018-12-21T17:52:50.175Z,101.20
2018-12-21T17:55:18.659Z,94.67
2018-12-21T17:57:47.083Z,107.07
2018-12-21T18:00:19.751Z,103.30
2018-12-21T18:02:51.875Z,95.47
2018-12-21T18:05:20.915Z,95.63
2018-12-21T18:07:49.356Z,92.57
2018-12-21T18:10:17.796Z,86.37
2018-12-21T18:12:46.223Z,85.50
2018-12-21T18:15:14.715Z,105.60
2018-12-21T18:17:43.142Z,103.83
2018-12-21T18:20:12.924Z,97.27
2018-12-21T18:22:42.145Z,90.00
2018-12-21T18:25:15.793Z,100.27
2018-12-21T18:27:46.775Z,95.80
2018-12-21T18:30:24.116Z,87.37
2018-12-21T18:32:52.572Z,100.23
2018-12-21T18:35:21.016Z,99.80
2018-12-21T18:38:01.004Z,94.80
2018-12-21T18:40:30.410Z,101.77
2018-12-21T18:42:59.035Z,97.10
2018-12-21T18:45:27.527Z,106.50
2018-12-21T18:47:55.958Z,99.90
2018-12-21T18:50:25.630Z,93.03
2018-12-21T18:52:54.111Z,95.70
2018-12-21T18:55:22.544Z,96.97
2018-12-21T18:57:51.003Z,103.97
2018-12-21T19:00:19.447Z,95.53
2018-12-21T19:02:47.900Z,95.27
2018-12-21T19:05:16.389Z,102.13
2018-12-21T19:07:44.819Z,87.60
2018-12-21T19:10:13.276Z,96.20
2018-12-21T19:12:41.685Z,93.07
2018-12-21T19:15:11.332Z,85.60
2018-12-21T19:17:40.123Z,90.77
2018-12-21T19:20:12.484Z,97.73
2018-12-21T19:22:40.998Z,91.83
2018-12-21T19:25:10.991Z,93.80
2018-12-21T19:27:39.447Z,87.97
2018-12-21T19:30:10.437Z,91.57
2018-12-21T19:32:40.323Z,93.90
2018-12-21T19:35:09.752Z,89.60
2018-12-21T19:37:38.235Z,86.23
2018-12-21T19:40:08.586Z,93.67
2018-12-21T19:42:37.103Z,85.27
2018-12-21T19:45:07.503Z,81.67
2018-12-21T19:47:35.959Z,91.87
2018-12-21T19:50:05.148Z,79.87
2018-12-21T19:52:33.607Z,81.80
2018-12-21T19:55:09.969Z,86.97
2018-12-21T19:57:38.407Z,83.67
2018-12-21T20:00:07.797Z,80.50
2018-12-21T20:02:36.223Z,76.37
2018-12-21T20:05:05.210Z,80.43
2018-12-21T20:07:33.744Z,68.73
2018-12-21T20:10:02.199Z,75.30
2018-12-21T20:12:30.729Z,70.83
2018-12-21T20:14:59.243Z,66.63
2018-12-21T20:17:27.717Z,66.87
2018-12-21T20:19:56.155Z,72.70
2018-12-21T20:22:24.608Z,64.97
2018-12-21T20:24:53.037Z,67.23
2018-12-21T20:27:21.482Z,62.10
2018-12-21T20:29:49.895Z,61.60
2018-12-21T20:32:18.339Z,66.00
2018-12-21T20:34:46.907Z,60.43
2018-12-21T20:37:15.420Z,59.80
2018-12-21T20:39:46.149Z,44.53
2018-12-21T20:42:14.592Z,15.13
2018-12-21T20:44:43.043Z,14.47
2018-12-21T20:47:11.663Z,11.83
2018-12-21T20:49:40.270Z,10.17
2018-12-21T20:52:08.689Z,8.43
2018-12-21T20:54:37.103Z,7.63
2018-12-21T20:57:07.971Z,7.30
2018-12-21T20:59:36.688Z,8.00
2018-12-21T21:02:05.145Z,13.33
2018-12-21T21:04:33.557Z,23.23
2018-12-21T21:07:02.007Z,36.40
2018-12-21T21:09:30.434Z,25.37
2018-12-21T21:11:58.881Z,8.83
2018-12-21T21:14:27.305Z,16.57
2018-12-21T21:16:55.739Z,21.97
2018-12-21T21:19:25.819Z,30.80
2018-12-21T21:21:54.269Z,36.50
2018-12-21T21:24:22.771Z,37.43
2018-12-21T21:26:51.287Z,38.23
2018-12-21T21:29:19.896Z,37.97
2018-12-21T21:31:48.760Z,27.57
2018-12-21T21:34:17.352Z,21.60
2018-12-21T21:36:45.755Z,19.77
2018-12-21T21:39:14.205Z,19.43
2018-12-21T21:41:42.627Z,19.47
2018-12-21T21:44:11.319Z,18.10
2018-12-21T21:46:39.793Z,16.17
2018-12-21T21:49:08.239Z,16.20
2018-12-21T21:51:36.828Z,16.87
2018-12-21T21:54:05.341Z,17.67
2018-12-21T21:56:33.815Z,14.97
2018-12-21T21:59:02.248Z,15.63
2018-12-21T22:01:30.666Z,12.93
2018-12-21T22:03:59.107Z,10.87
2018-12-21T22:06:27.626Z,12.80
2018-12-21T22:08:56.085Z,9.13
2018-12-21T22:11:24.547Z,6.50
2018-12-21T22:13:53.014Z,4.20
2018-12-21T22:16:21.424Z,4.23
2018-12-21T22:18:49.994Z,4.43
2018-12-21T22:21:18.402Z,3.70
2018-12-21T22:23:46.856Z,3.57
2018-12-21T22:26:15.264Z,4.57
2018-12-21T22:28:43.735Z,4.00
2018-12-21T22:31:12.151Z,4.10
2018-12-21T22:33:40.599Z,4.27
2018-12-21T22:36:09.000Z,4.53
2018-12-21T22:38:37.429Z,4.10
2018-12-21T22:41:05.887Z,4.20
2018-12-21T22:43:34.327Z,5.23
2018-12-21T22:46:02.791Z,6.67
2018-12-21T22:48:31.227Z,4.63
2018-12-21T22:50:59.643Z,4.37
2018-12-21T22:53:28.060Z,4.40
2018-12-21T22:55:56.516Z,4.37
2018-12-21T22:58:24.952Z,4.50
2018-12-21T23:00:53.801Z,4.63
2018-12-21T23:03:22.263Z,4.57
2018-12-21T23:05:50.715Z,4.70
2018-12-21T23:08:19.151Z,4.97
2018-12-21T23:10:47.567Z,4.60
2018-12-21T23:13:16.024Z,4.93
2018-12-21T23:15:44.427Z,4.60
2018-12-21T23:18:12.888Z,5.20
2018-12-21T23:20:41.296Z,4.50
2018-12-21T23:23:09.763Z,4.40
2018-12-21T23:25:38.193Z,4.70
2018-12-21T23:28:06.627Z,5.03
2018-12-21T23:30:35.070Z,5.10
2018-12-21T23:33:03.512Z,5.20
2018-12-21T23:35:32.011Z,4.97
2018-12-21T23:38:00.463Z,6.70
2018-12-21T23:40:28.978Z,5.27
2018-12-21T23:42:58.050Z,5.30
2018-12-21T23:45:26.471Z,5.37
2018-12-21T23:47:54.943Z,4.90
2018-12-21T23:50:24.426Z,5.03
2018-12-21T23:52:52.830Z,5.00
2018-12-21T23:55:21.240Z,5.57
2018-12-21T23:57:49.700Z,5.20
